createdAt,value
2023-03-07T00:00:33.415Z,24.70
2023-03-07T00:01:35.192Z,19.63
2023-03-07T00:02:37.860Z,24.77
2023-03-07T00:03:39.595Z,23.80
2023-03-07T00:04:45.952Z,27.07
2023-03-07T00:05:47.655Z,24.73
2023-03-07T00:06:50.388Z,27.07
2023-03-07T00:07:52.053Z,22.57
2023-03-07T00:08:57.293Z,20.53
2023-03-07T00:10:00.410Z,21.90
2023-03-07T00:11:03.734Z,21.07
2023-03-07T00:12:06.310Z,23.73
2023-03-07T00:13:09.025Z,23.03
2023-03-07T00:14:10.777Z,19.30
2023-03-07T00:15:13.667Z,15.03
2023-03-07T00:16:16.578Z,21.27
2023-03-07T00:17:19.231Z,19.50
2023-03-07T00:18:20.902Z,19.73
2023-03-07T00:19:23.553Z,23.73
2023-03-07T00:20:25.423Z,21.80
2023-03-07T00:21:31.329Z,23.50
2023-03-07T00:22:33.038Z,26.20
2023-03-07T00:23:36.367Z,20.67
2023-03-07T00:24:38.257Z,21.77
2023-03-07T00:25:42.306Z,20.40
2023-03-07T00:26:44.044Z,22.57
2023-03-07T00:27:46.675Z,22.50
2023-03-07T00:28:49.513Z,21.63
2023-03-07T00:29:52.240Z,20.77
2023-03-07T00:30:54.195Z,24.17
2023-03-07T00:31:56.861Z,19.60
2023-03-07T00:32:59.092Z,21.93
2023-03-07T00:34:01.761Z,20.97
2023-03-07T00:35:03.589Z,21.70
2023-03-07T00:36:08.481Z,17.20
2023-03-07T00:37:10.160Z,21.37
2023-03-07T00:38:12.795Z,28.33
2023-03-07T00:39:14.596Z,22.87
2023-03-07T00:40:17.472Z,24.57
2023-03-07T00:41:21.874Z,23.47
2023-03-07T00:42:24.519Z,16.10
2023-03-07T00:43:26.586Z,20.17
2023-03-07T00:44:30.072Z,19.90
2023-03-07T00:45:31.751Z,17.60
2023-03-07T00:46:34.567Z,20.17
2023-03-07T00:47:36.288Z,19.80
2023-03-07T00:48:40.478Z,24.63
2023-03-07T00:49:42.163Z,21.87
2023-03-07T00:50:44.866Z,17.93
2023-03-07T00:51:47.669Z,20.80
2023-03-07T00:52:49.380Z,16.43
2023-03-07T00:53:52.331Z,15.53
2023-03-07T00:54:54.009Z,22.97
2023-03-07T00:55:58.308Z,19.60
2023-03-07T00:57:01.393Z,24.03
2023-03-07T00:58:04.062Z,17.50
2023-03-07T00:59:06.733Z,23.23
2023-03-07T01:00:10.777Z,21.07
2023-03-07T01:01:14.961Z,24.43
2023-03-07T01:02:16.674Z,18.80
2023-03-07T01:03:19.317Z,17.30
2023-03-07T01:04:21.015Z,22.00
2023-03-07T01:05:23.791Z,22.10
2023-03-07T01:06:29.185Z,20.03
2023-03-07T01:07:30.910Z,18.43
2023-03-07T01:08:34.057Z,19.70
2023-03-07T01:09:36.735Z,14.17
2023-03-07T01:10:38.462Z,23.30
2023-03-07T01:11:41.176Z,19.70
2023-03-07T01:12:44.231Z,23.77
2023-03-07T01:13:46.953Z,22.47
2023-03-07T01:14:50.352Z,22.67
2023-03-07T01:15:53.065Z,20.53
2023-03-07T01:16:54.804Z,18.57
2023-03-07T01:17:57.752Z,17.40
2023-03-07T01:19:01.550Z,20.50
2023-03-07T01:20:07.065Z,17.87
2023-03-07T01:21:14.365Z,19.47
2023-03-07T01:22:17.106Z,20.27
2023-03-07T01:23:18.779Z,19.07
2023-03-07T01:24:21.419Z,17.07
2023-03-07T01:25:23.098Z,20.13
2023-03-07T01:26:27.299Z,21.03
2023-03-07T01:27:29.017Z,15.50
2023-03-07T01:28:33.089Z,14.90
2023-03-07T01:29:34.775Z,18.43
2023-03-07T01:30:37.442Z,17.70
2023-03-07T01:31:39.294Z,19.33
2023-03-07T01:32:42.109Z,19.37
2023-03-07T01:33:43.842Z,18.97
2023-03-07T01:34:46.479Z,20.13
2023-03-07T01:35:48.128Z,21.27
2023-03-07T01:36:50.848Z,20.47
2023-03-07T01:37:53.239Z,18.80
2023-03-07T01:38:56.559Z,14.30
2023-03-07T01:39:58.261Z,18.73
2023-03-07T01:41:01.997Z,18.03
2023-03-07T01:42:04.113Z,19.73
2023-03-07T01:43:27.836Z,17.90
2023-03-07T01:44:31.062Z,19.97
2023-03-07T01:46:25.494Z,18.50
2023-03-07T01:47:28.127Z,19.30
2023-03-07T01:48:29.817Z,19.20
2023-03-07T01:49:34.090Z,22.33
2023-03-07T01:50:36.279Z,18.20
2023-03-07T01:51:40.701Z,21.57
2023-03-07T01:52:45.197Z,17.13
2023-03-07T01:53:48.183Z,22.67
2023-03-07T01:54:52.366Z,17.57
2023-03-07T01:55:55.105Z,17.60
2023-03-07T01:56:58.916Z,19.43
2023-03-07T01:58:04.310Z,18.50
2023-03-07T01:59:07.717Z,18.67
2023-03-07T02:00:14.064Z,16.10
2023-03-07T02:01:17.427Z,16.37
2023-03-07T02:02:22.776Z,19.90
2023-03-07T02:03:28.430Z,17.50
2023-03-07T02:04:34.640Z,16.03
2023-03-07T02:05:38.227Z,17.33
2023-03-07T02:06:41.119Z,19.13
2023-03-07T02:07:46.697Z,19.27
2023-03-07T02:08:50.332Z,19.97
2023-03-07T02:09:53.843Z,20.00
2023-03-07T02:10:56.584Z,18.40
2023-03-07T02:12:00.613Z,19.93
2023-03-07T02:13:03.693Z,20.33
2023-03-07T02:14:05.395Z,16.80
2023-03-07T02:15:11.934Z,19.47
2023-03-07T02:16:13.938Z,21.67
2023-03-07T02:17:16.799Z,20.70
2023-03-07T02:18:21.370Z,19.40
2023-03-07T02:19:31.927Z,18.67
2023-03-07T02:20:40.587Z,14.67
2023-03-07T02:21:47.831Z,18.50
2023-03-07T02:22:50.098Z,20.50
2023-03-07T02:23:57.962Z,17.87
2023-03-07T02:25:03.787Z,19.23
2023-03-07T02:26:11.956Z,18.87
2023-03-07T02:27:15.198Z,18.67
2023-03-07T02:28:19.164Z,18.00
2023-03-07T02:29:21.352Z,19.50
2023-03-07T02:30:24.112Z,20.53
2023-03-07T02:31:26.245Z,24.17
2023-03-07T02:32:29.404Z,18.87
2023-03-07T02:33:31.399Z,16.37
2023-03-07T02:34:34.042Z,18.77
2023-03-07T02:35:35.817Z,16.10
2023-03-07T02:36:38.471Z,19.67
2023-03-07T02:37:41.598Z,14.63
2023-03-07T02:38:45.663Z,14.07
2023-03-07T02:39:48.456Z,19.10
2023-03-07T02:40:52.050Z,18.43
2023-03-07T02:41:55.600Z,18.33
2023-03-07T02:43:01.886Z,21.00
2023-03-07T02:44:03.673Z,20.57
2023-03-07T02:45:10.044Z,17.13
2023-03-07T02:46:11.780Z,18.53
2023-03-07T02:47:14.493Z,15.33
2023-03-07T02:48:16.175Z,18.93
2023-03-07T02:49:19.046Z,19.90
2023-03-07T02:50:21.191Z,19.83
2023-03-07T02:51:23.943Z,16.17
2023-03-07T02:52:27.981Z,15.67
2023-03-07T02:53:30.706Z,17.03
2023-03-07T02:54:32.380Z,14.63
2023-03-07T02:55:35.251Z,17.60
2023-03-07T02:56:37.054Z,11.90
2023-03-07T02:57:39.761Z,17.17
2023-03-07T02:58:42.851Z,10.80
2023-03-07T02:59:45.541Z,14.93
2023-03-07T03:00:47.276Z,16.03
2023-03-07T03:01:50.023Z,17.83
2023-03-07T03:02:51.849Z,20.33
2023-03-07T03:03:55.977Z,13.13
2023-03-07T03:04:57.697Z,13.10
2023-03-07T03:06:00.387Z,10.20
2023-03-07T03:07:02.212Z,14.60
2023-03-07T03:08:05.006Z,16.30
2023-03-07T03:09:06.712Z,16.87
2023-03-07T03:10:09.902Z,16.13
2023-03-07T03:11:11.631Z,13.17
2023-03-07T03:12:14.425Z,14.43
2023-03-07T03:13:16.081Z,16.57
2023-03-07T03:14:20.405Z,16.30
2023-03-07T03:15:22.078Z,13.90
2023-03-07T03:16:24.799Z,17.77
2023-03-07T03:17:26.752Z,15.17
2023-03-07T03:18:30.030Z,15.43
2023-03-07T03:19:31.764Z,15.30
2023-03-07T03:20:34.466Z,9.87
2023-03-07T03:21:36.197Z,11.50
2023-03-07T03:22:38.985Z,15.37
2023-03-07T03:23:40.921Z,14.67
2023-03-07T03:24:46.462Z,11.40
2023-03-07T03:25:57.742Z,13.67
2023-03-07T03:27:00.419Z,9.93
2023-03-07T03:28:02.200Z,14.33
2023-03-07T03:29:06.004Z,13.30
2023-03-07T03:30:11.434Z,13.30
2023-03-07T03:31:15.386Z,16.00
2023-03-07T03:32:17.273Z,11.73
2023-03-07T03:33:20.009Z,10.77
2023-03-07T03:34:21.837Z,13.83
2023-03-07T03:35:24.476Z,14.67
2023-03-07T03:36:27.453Z,12.90
2023-03-07T03:37:30.074Z,10.07
2023-03-07T03:38:35.186Z,10.93
2023-03-07T03:39:38.259Z,12.63
2023-03-07T03:40:40.093Z,14.30
2023-03-07T03:41:42.812Z,14.37
2023-03-07T03:42:44.931Z,11.07
2023-03-07T03:43:47.951Z,13.70
2023-03-07T03:44:49.761Z,14.03
2023-03-07T03:45:57.337Z,14.30
2023-03-07T03:46:59.092Z,12.63
2023-03-07T03:48:01.781Z,12.53
2023-03-07T03:49:03.979Z,12.33
2023-03-07T03:50:07.388Z,10.93
2023-03-07T03:51:11.252Z,13.83
2023-03-07T03:52:13.907Z,9.13
2023-03-07T03:53:15.602Z,11.37
2023-03-07T03:54:18.287Z,13.30
2023-03-07T03:55:20.008Z,10.97
2023-03-07T03:56:24.605Z,10.07
2023-03-07T03:57:26.293Z,11.70
2023-03-07T03:58:29.025Z,10.10
2023-03-07T03:59:31.801Z,9.93
2023-03-07T04:00:33.464Z,9.33
2023-03-07T04:01:37.492Z,10.67
2023-03-07T04:02:39.565Z,9.73
2023-03-07T04:03:44.487Z,10.33
2023-03-07T04:04:47.183Z,8.43
2023-03-07T04:05:48.906Z,14.10
2023-03-07T04:06:51.532Z,12.70
2023-03-07T04:07:53.224Z,16.00
2023-03-07T04:08:56.154Z,21.57
2023-03-07T04:09:57.833Z,12.97
2023-03-07T04:11:00.643Z,17.40
2023-03-07T04:12:02.330Z,12.27
2023-03-07T04:13:04.966Z,11.80
2023-03-07T04:14:06.803Z,11.30
2023-03-07T04:15:10.145Z,12.10
2023-03-07T04:16:12.139Z,8.03
2023-03-07T04:17:16.237Z,12.20
2023-03-07T04:18:17.959Z,12.67
2023-03-07T04:19:22.119Z,12.40
2023-03-07T04:20:23.869Z,13.70
2023-03-07T04:21:26.813Z,14.00
2023-03-07T04:22:28.537Z,10.67
2023-03-07T04:23:31.213Z,11.57
2023-03-07T04:24:32.949Z,9.17
2023-03-07T04:25:35.683Z,15.77
2023-03-07T04:26:37.423Z,14.17
2023-03-07T04:27:40.052Z,12.30
2023-03-07T04:28:43.850Z,12.60
2023-03-07T04:29:46.475Z,11.60
2023-03-07T04:30:49.846Z,12.93
2023-03-07T04:31:52.605Z,11.73
2023-03-07T04:32:55.665Z,11.50
2023-03-07T04:33:58.612Z,14.73
2023-03-07T04:35:00.289Z,13.10
2023-03-07T04:36:03.065Z,14.50
2023-03-07T04:37:05.845Z,11.07
2023-03-07T04:38:07.831Z,11.57
2023-03-07T04:39:10.497Z,13.30
2023-03-07T04:40:12.934Z,12.33
2023-03-07T04:41:17.056Z,12.03
2023-03-07T04:42:18.771Z,14.00
2023-03-07T04:43:21.746Z,12.73
2023-03-07T04:44:23.611Z,14.07
2023-03-07T04:45:26.243Z,13.97
2023-03-07T04:46:28.208Z,12.67
2023-03-07T04:47:31.074Z,14.00
2023-03-07T04:48:34.141Z,13.67
2023-03-07T04:49:37.063Z,12.83
2023-03-07T04:50:38.748Z,11.80
2023-03-07T04:51:43.658Z,14.47
2023-03-07T04:52:45.750Z,13.47
2023-03-07T04:53:48.540Z,15.17
2023-03-07T04:54:50.193Z,15.63
2023-03-07T04:55:52.975Z,14.53
2023-03-07T04:56:54.611Z,13.47
2023-03-07T04:57:57.702Z,11.30
2023-03-07T04:58:59.376Z,13.00
2023-03-07T05:00:05.386Z,12.80
2023-03-07T05:01:07.148Z,12.07
2023-03-07T05:02:10.308Z,12.63
2023-03-07T05:03:12.987Z,15.47
2023-03-07T05:04:17.115Z,12.27
2023-03-07T05:05:19.007Z,9.57
2023-03-07T05:06:21.711Z,9.63
2023-03-07T05:07:23.482Z,12.00
2023-03-07T05:08:26.171Z,11.93
2023-03-07T05:09:27.865Z,14.37
2023-03-07T05:10:30.677Z,12.00
2023-03-07T05:11:32.351Z,10.90
2023-03-07T05:12:35.085Z,14.23
2023-03-07T05:13:37.744Z,11.40
2023-03-07T05:14:39.502Z,12.93
2023-03-07T05:15:42.226Z,14.37
2023-03-07T05:16:43.957Z,13.07
2023-03-07T05:17:46.858Z,11.57
2023-03-07T05:18:48.615Z,16.17
2023-03-07T05:19:52.693Z,4.00
2023-03-07T05:20:54.404Z,12.67
2023-03-07T05:21:57.112Z,10.33
2023-03-07T05:22:58.797Z,12.73
2023-03-07T05:24:01.627Z,15.83
2023-03-07T05:25:03.549Z,14.23
2023-03-07T05:26:06.561Z,13.27
2023-03-07T05:27:08.260Z,13.57
2023-03-07T05:28:10.966Z,12.10
2023-03-07T05:29:12.631Z,8.83
2023-03-07T05:30:16.849Z,11.33
2023-03-07T05:31:18.864Z,13.30
2023-03-07T05:32:21.593Z,13.73
2023-03-07T05:33:23.296Z,13.70
2023-03-07T05:34:26.124Z,14.80
2023-03-07T05:35:29.193Z,11.80
2023-03-07T05:36:31.877Z,15.43
2023-03-07T05:37:33.630Z,15.83
2023-03-07T05:38:36.678Z,14.67
2023-03-07T05:39:38.699Z,14.77
2023-03-07T05:40:41.663Z,21.87
2023-03-07T05:41:43.385Z,14.47
2023-03-07T05:42:46.132Z,10.50
2023-03-07T05:43:47.836Z,15.23
2023-03-07T05:44:50.504Z,14.57
2023-03-07T05:45:52.246Z,14.37
2023-03-07T05:46:54.909Z,13.27
2023-03-07T05:47:56.604Z,15.50
2023-03-07T05:48:59.272Z,18.00
2023-03-07T05:50:00.943Z,13.70
2023-03-07T05:51:05.395Z,12.47
2023-03-07T05:52:07.281Z,15.63
2023-03-07T05:53:10.026Z,16.30
2023-03-07T05:54:11.731Z,8.10
2023-03-07T05:55:14.426Z,15.27
2023-03-07T05:56:16.118Z,11.47
2023-03-07T05:57:20.842Z,15.77
2023-03-07T05:58:22.715Z,13.53
2023-03-07T05:59:25.434Z,14.07
2023-03-07T06:00:27.231Z,15.57
2023-03-07T06:01:29.891Z,13.53
2023-03-07T06:02:31.623Z,15.57
2023-03-07T06:03:34.593Z,12.83
2023-03-07T06:04:36.368Z,16.37
2023-03-07T06:05:39.256Z,15.70
2023-03-07T06:06:42.322Z,19.60
2023-03-07T06:07:45.064Z,16.83
2023-03-07T06:08:46.758Z,13.20
2023-03-07T06:09:49.458Z,17.07
2023-03-07T06:10:52.164Z,15.90
2023-03-07T06:11:53.983Z,16.47
2023-03-07T06:12:56.943Z,15.87
2023-03-07T06:13:58.692Z,16.33
2023-03-07T06:15:01.332Z,14.40
2023-03-07T06:16:03.576Z,13.37
2023-03-07T06:17:07.160Z,12.13
2023-03-07T06:18:09.202Z,12.53
2023-03-07T06:19:11.854Z,16.73
2023-03-07T06:20:15.958Z,19.10
2023-03-07T06:21:19.815Z,19.87
2023-03-07T06:22:22.890Z,13.37
2023-03-07T06:23:25.799Z,17.70
2023-03-07T06:24:27.446Z,12.07
2023-03-07T06:25:30.136Z,12.87
2023-03-07T06:26:32.025Z,14.13
2023-03-07T06:27:34.961Z,13.73
2023-03-07T06:28:36.968Z,12.67
2023-03-07T06:29:39.627Z,15.40
2023-03-07T06:30:41.301Z,13.70
2023-03-07T06:31:43.983Z,12.53
2023-03-07T06:32:45.844Z,14.67
2023-03-07T06:33:49.458Z,14.00
2023-03-07T06:34:51.310Z,16.40
2023-03-07T06:35:53.998Z,14.03
2023-03-07T06:36:55.685Z,11.70
2023-03-07T06:37:59.712Z,13.87
2023-03-07T06:39:01.362Z,12.70
2023-03-07T06:40:06.259Z,15.90
2023-03-07T06:41:08.357Z,12.33
2023-03-07T06:42:11.012Z,15.00
2023-03-07T06:43:12.713Z,14.40
2023-03-07T06:44:15.377Z,13.17
2023-03-07T06:45:17.291Z,12.93
2023-03-07T06:46:20.983Z,13.57
2023-03-07T06:47:22.685Z,11.50
2023-03-07T06:48:25.877Z,13.60
2023-03-07T06:49:27.547Z,16.93
2023-03-07T06:50:35.575Z,11.60
2023-03-07T06:51:38.053Z,10.23
2023-03-07T06:52:40.869Z,13.57
2023-03-07T06:53:43.959Z,12.57
2023-03-07T06:54:46.637Z,14.83
2023-03-07T06:55:49.637Z,13.70
2023-03-07T06:56:52.572Z,14.53
2023-03-07T06:57:54.298Z,9.87
2023-03-07T06:58:56.966Z,10.63
2023-03-07T06:59:58.644Z,15.80
2023-03-07T07:01:01.332Z,12.77
2023-03-07T07:02:03.867Z,11.97
2023-03-07T07:03:06.675Z,12.67
2023-03-07T07:04:09.773Z,16.23
2023-03-07T07:05:13.007Z,10.87
2023-03-07T07:06:14.770Z,11.03
2023-03-07T07:07:17.402Z,11.07
2023-03-07T07:08:22.323Z,15.80
2023-03-07T07:09:26.307Z,13.23
2023-03-07T07:10:28.130Z,15.97
2023-03-07T07:11:30.846Z,16.47
2023-03-07T07:12:32.617Z,11.03
2023-03-07T07:13:35.295Z,12.40
2023-03-07T07:14:37.003Z,11.47
2023-03-07T07:15:39.825Z,13.87
2023-03-07T07:16:41.669Z,13.17
2023-03-07T07:17:44.402Z,13.67
2023-03-07T07:18:46.216Z,8.30
2023-03-07T07:19:49.198Z,12.60
2023-03-07T07:20:54.223Z,13.53
2023-03-07T07:21:57.193Z,14.20
2023-03-07T07:22:58.913Z,12.43
2023-03-07T07:24:01.625Z,11.43
2023-03-07T07:25:05.481Z,13.30
2023-03-07T07:26:08.510Z,14.97
2023-03-07T07:27:12.493Z,11.53
2023-03-07T07:28:15.378Z,12.77
2023-03-07T07:29:18.086Z,11.80
2023-03-07T07:30:19.874Z,11.47
2023-03-07T07:31:22.716Z,13.30
2023-03-07T07:32:24.712Z,14.63
2023-03-07T07:33:27.683Z,8.30
2023-03-07T07:34:29.897Z,14.67
2023-03-07T07:35:32.591Z,17.37
2023-03-07T07:36:34.452Z,12.87
2023-03-07T07:37:37.209Z,15.57
2023-03-07T07:38:38.917Z,17.50
2023-03-07T07:39:43.775Z,13.80
2023-03-07T07:40:47.853Z,6.57
2023-03-07T07:41:49.597Z,11.03
2023-03-07T07:42:54.505Z,9.83
2023-03-07T07:43:56.368Z,13.83
2023-03-07T07:44:59.038Z,14.63
2023-03-07T07:46:04.025Z,17.47
2023-03-07T07:47:05.840Z,9.67
2023-03-07T07:48:08.521Z,12.60
2023-03-07T07:49:10.257Z,13.10
2023-03-07T07:50:14.212Z,15.07
2023-03-07T07:51:15.952Z,12.43
2023-03-07T07:52:18.771Z,12.40
2023-03-07T07:53:23.796Z,15.70
2023-03-07T07:54:27.088Z,12.43
2023-03-07T07:55:28.862Z,16.17
2023-03-07T07:56:32.997Z,8.87
2023-03-07T07:57:34.852Z,12.80
2023-03-07T07:58:37.641Z,9.57
2023-03-07T07:59:39.325Z,13.37
2023-03-07T08:00:42.070Z,10.80
2023-03-07T08:01:43.767Z,12.77
2023-03-07T08:02:46.614Z,11.97
2023-03-07T08:03:50.148Z,13.93
2023-03-07T08:04:52.061Z,9.90
2023-03-07T08:05:54.777Z,10.77
2023-03-07T08:06:57.437Z,9.60
2023-03-07T08:08:00.471Z,11.03
2023-03-07T08:09:02.145Z,10.73
2023-03-07T08:10:05.706Z,10.13
2023-03-07T08:11:09.005Z,13.23
2023-03-07T08:12:13.630Z,10.05
2023-03-07T08:13:17.869Z,10.83
2023-03-07T08:14:19.592Z,11.33
2023-03-07T08:15:23.630Z,11.43
2023-03-07T08:16:26.140Z,8.63
2023-03-07T08:17:29.917Z,10.55
2023-03-07T08:18:32.585Z,10.77
2023-03-07T08:19:35.455Z,9.25
2023-03-07T08:20:37.436Z,12.50
2023-03-07T08:21:40.487Z,11.45
2023-03-07T08:22:43.600Z,10.75
2023-03-07T08:23:46.371Z,13.23
2023-03-07T08:24:50.156Z,12.98
2023-03-07T08:25:52.822Z,10.35
2023-03-07T08:26:54.526Z,14.30
2023-03-07T08:27:58.647Z,9.32
2023-03-07T08:29:01.485Z,11.60
2023-03-07T08:30:03.616Z,7.85
2023-03-07T08:31:10.005Z,10.25
2023-03-07T08:32:14.323Z,9.27
2023-03-07T08:33:17.042Z,13.52
2023-03-07T08:34:19.725Z,7.88
2023-03-07T08:35:21.682Z,6.00
2023-03-07T08:36:24.512Z,8.88
2023-03-07T08:37:26.261Z,9.80
2023-03-07T08:38:28.944Z,10.65
2023-03-07T08:39:31.560Z,10.77
2023-03-07T08:40:33.292Z,7.20
2023-03-07T08:41:35.953Z,18.13
2023-03-07T08:42:37.706Z,11.95
2023-03-07T08:43:41.934Z,10.45
2023-03-07T08:44:43.688Z,15.23
2023-03-07T08:45:46.409Z,12.52
2023-03-07T08:46:49.115Z,10.80
2023-03-07T08:47:52.535Z,8.95
2023-03-07T08:48:55.316Z,8.98
2023-03-07T08:49:57.464Z,9.40
2023-03-07T08:51:05.563Z,9.57
2023-03-07T08:52:07.234Z,11.00
2023-03-07T08:53:09.912Z,10.07
2023-03-07T08:54:12.842Z,9.77
2023-03-07T08:55:16.765Z,7.32
2023-03-07T08:56:20.352Z,9.15
2023-03-07T08:57:23.118Z,6.70
2023-03-07T08:58:27.241Z,8.07
2023-03-07T08:59:31.315Z,9.73
2023-03-07T09:00:33.295Z,9.63
2023-03-07T09:01:36.028Z,10.40
2023-03-07T09:02:37.823Z,10.32
2023-03-07T09:03:40.514Z,9.73
2023-03-07T09:04:43.340Z,9.57
2023-03-07T09:05:45.475Z,10.20
2023-03-07T09:06:48.181Z,12.13
2023-03-07T09:07:49.879Z,10.10
2023-03-07T09:08:52.956Z,8.05
2023-03-07T09:09:54.906Z,9.52
2023-03-07T09:11:00.367Z,11.65
2023-03-07T09:12:02.107Z,9.43
2023-03-07T09:13:04.878Z,8.38
2023-03-07T09:14:06.634Z,9.32
2023-03-07T09:15:11.805Z,9.60
2023-03-07T09:16:13.523Z,11.65
2023-03-07T09:17:16.350Z,12.15
2023-03-07T09:18:18.203Z,8.82
2023-03-07T09:19:20.978Z,10.75
2023-03-07T09:20:22.872Z,8.82
2023-03-07T09:21:25.635Z,10.93
2023-03-07T09:22:28.496Z,9.30
2023-03-07T09:23:30.251Z,13.07
2023-03-07T09:24:33.253Z,5.63
2023-03-07T09:25:36.367Z,6.22
2023-03-07T09:26:38.247Z,5.68
2023-03-07T09:27:40.936Z,5.88
2023-03-07T09:28:42.688Z,7.32
2023-03-07T09:29:45.583Z,15.57
2023-03-07T09:30:49.619Z,5.18
2023-03-07T09:31:52.385Z,5.75
2023-03-07T09:32:54.277Z,6.55
2023-03-07T09:33:57.811Z,7.25
2023-03-07T09:34:59.497Z,7.53
2023-03-07T09:36:05.445Z,9.43
2023-03-07T09:37:07.276Z,12.52
2023-03-07T09:38:10.609Z,9.32
2023-03-07T09:39:14.691Z,7.68
2023-03-07T09:40:17.977Z,8.23
2023-03-07T09:41:36.053Z,13.38
2023-03-07T09:42:45.280Z,6.45
2023-03-07T09:43:51.555Z,10.65
2023-03-07T09:45:16.035Z,5.97
2023-03-07T09:46:30.650Z,8.82
2023-03-07T09:47:48.774Z,8.55
2023-03-07T09:49:04.854Z,10.43
2023-03-07T09:50:11.659Z,6.63
2023-03-07T09:51:18.251Z,19.70
2023-03-07T09:52:22.396Z,6.13
2023-03-07T09:53:32.949Z,6.43
2023-03-07T09:54:40.216Z,7.05
2023-03-07T09:55:43.562Z,6.72
2023-03-07T09:56:48.919Z,7.65
2023-03-07T09:57:54.039Z,8.20
2023-03-07T09:59:06.544Z,7.43
2023-03-07T10:00:21.093Z,5.88
2023-03-07T10:01:26.010Z,11.85
2023-03-07T10:02:32.031Z,9.15
2023-03-07T10:03:37.164Z,8.80
2023-03-07T10:04:44.571Z,9.98
2023-03-07T10:05:49.269Z,7.00
2023-03-07T10:06:58.297Z,9.18
2023-03-07T10:08:00.921Z,8.55
2023-03-07T10:09:05.275Z,8.60
2023-03-07T10:10:12.375Z,15.55
2023-03-07T10:11:24.738Z,6.35
2023-03-07T10:12:35.418Z,8.00
2023-03-07T10:13:47.634Z,6.55
2023-03-07T10:15:03.623Z,6.57
2023-03-07T10:16:11.518Z,4.97
2023-03-07T10:17:22.382Z,6.75
2023-03-07T10:18:34.323Z,8.05
2023-03-07T10:19:41.220Z,6.70
2023-03-07T10:20:49.224Z,4.78
2023-03-07T10:21:59.009Z,7.20
2023-03-07T10:23:10.264Z,9.07
2023-03-07T10:24:30.701Z,6.43
2023-03-07T10:25:34.630Z,5.43
2023-03-07T10:26:41.669Z,7.30
2023-03-07T10:27:45.785Z,4.55
2023-03-07T10:28:48.901Z,8.90
2023-03-07T10:29:53.323Z,7.78
2023-03-07T10:30:59.279Z,7.80
2023-03-07T10:32:13.821Z,6.53
2023-03-07T10:33:19.405Z,7.05
2023-03-07T10:34:27.299Z,8.32
2023-03-07T10:35:40.259Z,5.90
2023-03-07T10:36:46.574Z,5.97
2023-03-07T10:37:51.417Z,3.50
2023-03-07T10:39:02.062Z,4.95
2023-03-07T10:40:05.124Z,4.60
2023-03-07T10:41:12.605Z,5.40
2023-03-07T10:42:15.619Z,8.25
2023-03-07T10:43:23.613Z,7.70
2023-03-07T10:44:29.067Z,9.52
2023-03-07T10:45:33.952Z,3.00
2023-03-07T10:46:41.579Z,5.80
2023-03-07T10:47:49.700Z,4.25
2023-03-07T10:48:55.058Z,6.40
2023-03-07T10:50:01.986Z,3.22
2023-03-07T10:51:07.861Z,6.20
2023-03-07T10:52:19.155Z,7.63
2023-03-07T10:53:24.163Z,6.20
2023-03-07T10:54:30.560Z,4.10
2023-03-07T10:55:38.634Z,6.70
2023-03-07T10:56:41.326Z,4.07
2023-03-07T10:57:43.104Z,11.88
2023-03-07T10:59:01.916Z,6.68
2023-03-07T11:00:14.213Z,6.47
2023-03-07T11:01:19.357Z,7.20
2023-03-07T11:02:32.724Z,9.15
2023-03-07T11:03:52.145Z,5.53
2023-03-07T11:04:57.414Z,8.52
2023-03-07T11:05:59.955Z,5.70
2023-03-07T11:07:02.925Z,7.68
2023-03-07T11:08:23.495Z,7.13
2023-03-07T11:09:28.895Z,10.48
2023-03-07T11:10:35.402Z,6.63
2023-03-07T11:11:39.082Z,7.05
2023-03-07T11:12:46.492Z,5.45
2023-03-07T11:14:05.420Z,3.97
2023-03-07T11:15:12.627Z,9.70
2023-03-07T11:16:19.829Z,6.18
2023-03-07T11:17:23.646Z,5.88
2023-03-07T11:18:27.051Z,6.72
2023-03-07T11:19:47.629Z,8.13
2023-03-07T11:20:51.108Z,5.88
2023-03-07T11:21:54.965Z,6.65
2023-03-07T11:23:15.860Z,6.00
2023-03-07T11:24:24.044Z,8.70
2023-03-07T11:25:26.813Z,8.18
2023-03-07T11:26:31.593Z,6.68
2023-03-07T11:27:37.772Z,8.85
2023-03-07T11:28:41.424Z,6.45
2023-03-07T11:29:44.093Z,9.20
2023-03-07T11:30:48.435Z,6.25
2023-03-07T11:31:53.089Z,6.13
2023-03-07T11:33:09.559Z,4.43
2023-03-07T11:34:25.299Z,6.85
2023-03-07T11:35:41.709Z,6.28
2023-03-07T11:36:48.559Z,6.85
2023-03-07T11:38:00.773Z,5.18
2023-03-07T11:39:09.618Z,4.25
2023-03-07T11:40:27.843Z,5.57
2023-03-07T11:41:32.420Z,7.18
2023-03-07T11:42:36.601Z,4.28
2023-03-07T11:43:50.839Z,7.25
2023-03-07T11:44:54.428Z,6.68
2023-03-07T11:46:00.973Z,4.38
2023-03-07T11:47:26.128Z,5.10
2023-03-07T11:48:42.783Z,5.35
2023-03-07T11:49:47.090Z,7.57
2023-03-07T11:50:51.710Z,9.38
2023-03-07T11:52:02.189Z,5.97
2023-03-07T11:53:37.992Z,8.95
2023-03-07T11:54:47.102Z,9.55
2023-03-07T11:55:56.152Z,7.93
2023-03-07T11:57:02.546Z,5.28
2023-03-07T11:58:25.046Z,7.93
2023-03-07T11:59:51.204Z,6.25
2023-03-07T12:01:04.090Z,7.95
2023-03-07T12:02:21.639Z,6.28
2023-03-07T12:03:49.070Z,4.55
2023-03-07T12:05:10.863Z,4.63
2023-03-07T12:06:37.383Z,7.55
2023-03-07T12:07:52.458Z,7.28
2023-03-07T12:09:05.116Z,6.22
2023-03-07T12:10:16.313Z,7.30
2023-03-07T12:11:27.802Z,12.10
2023-03-07T12:12:51.917Z,5.22
2023-03-07T12:13:59.489Z,8.05
2023-03-07T12:15:08.476Z,8.48
2023-03-07T12:16:17.409Z,7.03
2023-03-07T12:17:28.909Z,8.70
2023-03-07T12:18:42.761Z,7.05
2023-03-07T12:19:58.570Z,7.60
2023-03-07T12:21:14.355Z,5.35
2023-03-07T12:22:24.078Z,7.38
2023-03-07T12:23:33.845Z,5.85
2023-03-07T12:24:38.106Z,5.93
2023-03-07T12:25:43.568Z,3.95
2023-03-07T12:26:50.696Z,6.90
2023-03-07T12:28:02.453Z,7.43
2023-03-07T12:29:07.246Z,6.18
2023-03-07T12:30:16.711Z,5.45
2023-03-07T12:31:24.591Z,5.90
2023-03-07T12:32:27.949Z,5.00
2023-03-07T12:33:47.123Z,10.10
2023-03-07T12:34:54.101Z,5.13
2023-03-07T12:35:58.605Z,5.32
2023-03-07T12:37:04.553Z,3.70
2023-03-07T12:38:11.697Z,4.65
2023-03-07T12:39:20.886Z,4.70
2023-03-07T12:40:26.462Z,4.32
2023-03-07T12:41:41.008Z,7.15
2023-03-07T12:42:46.287Z,4.47
2023-03-07T12:43:52.315Z,7.40
2023-03-07T12:44:58.168Z,4.65
2023-03-07T12:46:04.930Z,6.07
2023-03-07T12:47:15.937Z,5.57
2023-03-07T12:48:21.920Z,7.20
2023-03-07T12:49:32.273Z,7.45
2023-03-07T12:50:46.930Z,6.38
2023-03-07T12:51:52.220Z,8.02
2023-03-07T12:52:57.581Z,6.18
2023-03-07T12:54:04.595Z,8.15
2023-03-07T12:55:18.179Z,6.88
2023-03-07T12:56:23.700Z,6.75
2023-03-07T12:57:28.811Z,7.75
2023-03-07T12:58:37.001Z,9.95
2023-03-07T12:59:42.120Z,6.43
2023-03-07T13:00:49.065Z,5.65
2023-03-07T13:01:55.673Z,6.05
2023-03-07T13:03:00.924Z,9.20
2023-03-07T13:04:07.272Z,8.30
2023-03-07T13:05:19.716Z,5.00
2023-03-07T13:06:23.865Z,7.15
2023-03-07T13:07:28.665Z,6.53
2023-03-07T13:08:30.596Z,7.53
2023-03-07T13:09:35.464Z,7.57
2023-03-07T13:10:39.508Z,7.93
2023-03-07T13:12:09.797Z,9.00
2023-03-07T13:13:45.697Z,13.88
2023-03-07T13:14:50.028Z,6.78
2023-03-07T13:16:04.486Z,5.97
2023-03-07T13:17:10.529Z,12.30
2023-03-07T13:18:26.681Z,5.68
2023-03-07T13:19:52.850Z,6.82
2023-03-07T13:21:13.662Z,9.25
2023-03-07T13:22:53.529Z,6.80
2023-03-07T13:24:43.835Z,6.63
2023-03-07T13:26:13.101Z,8.27
2023-03-07T13:27:16.377Z,8.00
2023-03-07T13:28:51.166Z,8.48
2023-03-07T13:30:21.640Z,5.95
2023-03-07T13:31:42.727Z,9.23
2023-03-07T13:33:00.087Z,6.32
2023-03-07T13:34:41.522Z,7.70
2023-03-07T13:35:55.347Z,5.40
2023-03-07T13:36:58.073Z,6.40
2023-03-07T13:38:03.770Z,6.13
2023-03-07T13:39:36.299Z,5.70
2023-03-07T13:40:55.203Z,7.32
2023-03-07T13:41:59.343Z,6.72
2023-03-07T13:43:01.416Z,8.98
2023-03-07T13:44:04.349Z,7.82
2023-03-07T13:45:42.913Z,12.65
2023-03-07T13:46:48.100Z,7.20
2023-03-07T13:47:50.893Z,11.68
2023-03-07T13:49:00.897Z,9.07
2023-03-07T13:50:04.067Z,7.53
2023-03-07T13:51:08.531Z,4.65
2023-03-07T13:52:44.306Z,9.40
2023-03-07T13:53:46.849Z,6.63
2023-03-07T13:54:50.864Z,7.50
2023-03-07T13:55:58.372Z,8.98
2023-03-07T13:57:01.649Z,8.20
2023-03-07T13:58:14.738Z,5.88
2023-03-07T13:59:21.404Z,11.98
2023-03-07T14:00:32.437Z,6.53
2023-03-07T14:01:39.305Z,4.97
2023-03-07T14:02:43.608Z,10.43
2023-03-07T14:03:49.436Z,10.80
2023-03-07T14:04:54.569Z,7.50
2023-03-07T14:05:59.287Z,6.25
2023-03-07T14:07:03.630Z,9.90
2023-03-07T14:08:07.196Z,8.52
2023-03-07T14:09:15.835Z,8.18